createdAt,value
2023-11-12T00:01:09.097Z,8.21
2023-11-12T00:04:00.147Z,8.22
2023-11-12T00:06:31.207Z,8.23
2023-11-12T00:09:05.454Z,8.22
2023-11-12T00:11:37.247Z,8.19
2023-11-12T00:14:09.033Z,8.17
2023-11-12T00:16:40.594Z,8.14
2023-11-12T00:19:11.951Z,8.10
2023-11-12T00:21:42.934Z,8.08
2023-11-12T00:24:14.112Z,8.06
2023-11-12T00:26:45.090Z,8.06
2023-11-12T00:29:16.231Z,8.04
2023-11-12T00:31:47.363Z,8.04
2023-11-12T00:34:18.305Z,8.04
2023-11-12T00:36:49.173Z,8.04
2023-11-12T00:39:20.187Z,8.04
2023-11-12T00:41:51.317Z,8.03
2023-11-12T00:44:24.844Z,8.01
2023-11-12T00:46:56.127Z,7.99
2023-11-12T00:49:27.240Z,7.97
2023-11-12T00:51:58.231Z,7.97
2023-11-12T00:54:29.204Z,7.95
2023-11-12T00:57:00.231Z,7.96
2023-11-12T00:59:31.266Z,7.95
2023-11-12T01:02:02.517Z,7.93
2023-11-12T01:04:34.122Z,7.92
2023-11-12T01:07:05.194Z,7.90
2023-11-12T01:09:36.598Z,7.90
2023-11-12T01:12:08.969Z,7.87
2023-11-12T01:14:40.135Z,7.85
2023-11-12T01:17:12.005Z,7.82
2023-11-12T01:19:43.013Z,7.80
2023-11-12T01:22:14.097Z,7.78
2023-11-12T01:24:45.130Z,7.77
2023-11-12T01:27:16.063Z,7.76
2023-11-12T01:29:47.103Z,7.75
2023-11-12T01:32:17.956Z,7.76
2023-11-12T01:34:49.131Z,7.77
2023-11-12T01:37:20.152Z,7.80
2023-11-12T01:39:51.180Z,7.80
2023-11-12T01:42:22.924Z,7.80
2023-11-12T01:44:53.968Z,7.80
2023-11-12T01:47:25.112Z,7.80
2023-11-12T01:49:56.197Z,7.80
2023-11-12T01:52:27.190Z,7.79
2023-11-12T01:54:58.186Z,7.78
2023-11-12T01:57:29.004Z,7.77
2023-11-12T02:00:00.080Z,7.78
2023-11-12T02:02:31.165Z,7.79
2023-11-12T02:05:02.224Z,7.77
2023-11-12T02:07:33.300Z,7.74
2023-11-12T02:10:10.869Z,7.75
2023-11-12T02:12:41.984Z,7.76
2023-11-12T02:15:15.401Z,7.77
2023-11-12T02:17:46.905Z,7.77
2023-11-12T02:20:17.978Z,7.76
2023-11-12T02:22:49.638Z,7.77
2023-11-12T02:25:20.605Z,7.76
2023-11-12T02:27:51.598Z,7.77
2023-11-12T02:30:22.599Z,7.76
2023-11-12T02:32:53.463Z,7.77
2023-11-12T02:35:24.621Z,7.77
2023-11-12T02:37:55.645Z,7.79
2023-11-12T02:40:26.510Z,7.80
2023-11-12T02:42:57.446Z,7.81
2023-11-12T02:45:28.594Z,7.81
2023-11-12T02:47:59.542Z,7.81
2023-11-12T02:50:33.263Z,7.80
2023-11-12T02:53:05.726Z,7.80
2023-11-12T02:55:37.532Z,7.79
2023-11-12T02:58:08.718Z,7.78
2023-11-12T03:00:39.897Z,7.79
2023-11-12T03:03:15.953Z,7.78
2023-11-12T03:05:47.273Z,7.79
2023-11-12T03:08:18.217Z,7.79
2023-11-12T03:10:49.215Z,7.76
2023-11-12T03:13:20.151Z,7.75
2023-11-12T03:15:51.150Z,7.75
2023-11-12T03:18:23.582Z,7.74
2023-11-12T03:20:54.508Z,7.72
2023-11-12T03:23:25.509Z,7.71
2023-11-12T03:25:56.621Z,7.72
2023-11-12T03:28:28.105Z,7.72
2023-11-12T03:30:59.083Z,7.71
2023-11-12T03:33:30.357Z,7.72
2023-11-12T03:36:01.287Z,7.72
2023-11-12T03:38:32.467Z,7.73
2023-11-12T03:41:03.829Z,7.72
2023-11-12T03:43:34.684Z,7.70
2023-11-12T03:46:05.903Z,7.68
2023-11-12T03:48:37.426Z,7.67
2023-11-12T03:51:08.500Z,7.67
2023-11-12T03:53:39.572Z,7.66
2023-11-12T03:56:11.045Z,7.65
2023-11-12T03:58:42.105Z,7.63
2023-11-12T04:01:13.750Z,7.58
2023-11-12T04:03:44.903Z,7.53
2023-11-12T04:06:16.151Z,7.50
2023-11-12T04:08:47.377Z,7.49
2023-11-12T04:11:18.315Z,7.48
2023-11-12T04:13:49.093Z,7.48
2023-11-12T04:16:20.953Z,7.46
2023-11-12T04:18:51.984Z,7.45
2023-11-12T04:21:23.075Z,7.43
2023-11-12T04:23:54.067Z,7.40
2023-11-12T04:26:26.044Z,7.40
2023-11-12T04:28:57.148Z,7.41
2023-11-12T04:31:28.241Z,7.42
2023-11-12T04:33:59.127Z,7.42
2023-11-12T04:36:30.249Z,7.42
2023-11-12T04:39:01.266Z,7.44
2023-11-12T04:41:32.894Z,7.43
2023-11-12T04:44:03.694Z,7.43
2023-11-12T04:46:35.350Z,7.46
2023-11-12T04:49:06.441Z,7.50
2023-11-12T04:51:37.339Z,7.49
2023-11-12T04:54:08.416Z,7.49
2023-11-12T04:56:46.036Z,7.45
2023-11-12T04:59:16.970Z,7.44
2023-11-12T05:01:47.929Z,7.46
2023-11-12T05:04:18.822Z,7.45
2023-11-12T05:06:49.936Z,7.45
2023-11-12T05:09:21.096Z,7.48
2023-11-12T05:11:52.094Z,7.47
2023-11-12T05:14:22.976Z,7.48
2023-11-12T05:16:54.003Z,7.50
2023-11-12T05:19:24.918Z,7.49
2023-11-12T05:21:55.860Z,7.49
2023-11-12T05:24:27.067Z,7.48
2023-11-12T05:26:58.122Z,7.47
2023-11-12T05:29:29.224Z,7.48
2023-11-12T05:32:00.242Z,7.48
2023-11-12T05:34:31.360Z,7.50
2023-11-12T05:37:02.346Z,7.53
2023-11-12T05:39:33.467Z,7.55
2023-11-12T05:42:04.657Z,7.56
2023-11-12T05:44:35.658Z,7.57
2023-11-12T05:47:06.949Z,7.54
2023-11-12T05:49:37.942Z,7.55
2023-11-12T05:52:09.169Z,7.53
2023-11-12T05:54:40.353Z,7.52
2023-11-12T05:57:11.372Z,7.51
2023-11-12T05:59:42.335Z,7.50
2023-11-12T06:02:13.320Z,7.51
2023-11-12T06:04:44.216Z,7.55
2023-11-12T06:07:15.232Z,7.57
2023-11-12T06:09:48.039Z,7.57
2023-11-12T06:12:18.976Z,7.56
2023-11-12T06:18:55.004Z,7.67
2023-11-12T06:21:25.810Z,7.66
2023-11-12T06:23:56.767Z,7.65
2023-11-12T06:26:27.642Z,7.63
2023-11-12T06:28:58.477Z,7.58
2023-11-12T06:31:29.306Z,7.59
2023-11-12T06:34:00.337Z,7.60
2023-11-12T06:36:31.255Z,7.62
2023-11-12T06:39:02.012Z,7.66
2023-11-12T06:41:33.787Z,7.67
2023-11-12T06:44:04.817Z,7.66
2023-11-12T06:46:35.643Z,7.70
2023-11-12T06:49:09.767Z,7.73
2023-11-12T06:51:40.684Z,7.78
2023-11-12T06:54:12.188Z,7.83
2023-11-12T06:56:43.176Z,7.91
2023-11-12T06:59:13.976Z,7.97
2023-11-12T07:01:47.041Z,8.01
2023-11-12T07:04:17.890Z,8.05
2023-11-12T07:07:01.635Z,8.08
2023-11-12T07:09:41.199Z,8.14
2023-11-12T07:12:12.151Z,8.20
2023-11-12T07:14:43.346Z,8.26
2023-11-12T07:17:15.473Z,8.31
2023-11-12T07:25:05.849Z,8.49
2023-11-12T07:27:36.890Z,8.53
2023-11-12T07:30:11.841Z,8.57
2023-11-12T07:32:42.949Z,8.59
2023-11-12T07:35:14.523Z,8.62
2023-11-12T07:37:45.823Z,8.66
2023-11-12T07:40:19.467Z,8.69
2023-11-12T07:42:50.561Z,8.74
2023-11-12T07:45:25.722Z,8.76
2023-11-12T07:48:02.830Z,8.80
2023-11-12T07:50:34.014Z,8.84
2023-11-12T07:53:05.731Z,8.85
2023-11-12T07:55:36.568Z,8.89
2023-11-12T07:58:07.551Z,8.96
2023-11-12T08:00:38.584Z,9.00
2023-11-12T08:03:09.380Z,9.00
2023-11-12T08:05:42.053Z,9.02
2023-11-12T08:08:12.994Z,9.06
2023-11-12T08:10:43.973Z,9.07
2023-11-12T08:13:17.834Z,9.06
2023-11-12T08:15:48.776Z,9.08
2023-11-12T08:18:19.624Z,9.12
2023-11-12T08:20:50.707Z,9.15
2023-11-12T08:23:21.727Z,9.20
2023-11-12T08:25:52.724Z,9.24
2023-11-12T08:28:25.753Z,9.27
2023-11-12T08:30:56.737Z,9.29
2023-11-12T08:33:27.665Z,9.33
2023-11-12T08:35:58.433Z,9.37
2023-11-12T08:38:29.087Z,9.39
2023-11-12T08:40:59.932Z,9.44
2023-11-12T08:43:30.778Z,9.47
2023-11-12T08:46:01.727Z,9.50
2023-11-12T08:48:34.146Z,9.52
2023-11-12T08:51:06.251Z,9.56
2023-11-12T08:53:37.183Z,9.59
2023-11-12T08:56:08.822Z,9.63
2023-11-12T08:58:40.295Z,9.71
2023-11-12T09:01:13.437Z,9.76
2023-11-12T09:03:44.356Z,9.82
2023-11-12T09:06:15.330Z,9.85
2023-11-12T09:08:46.521Z,9.88
2023-11-12T09:11:17.398Z,9.93
2023-11-12T09:13:48.442Z,9.98
2023-11-12T09:16:19.374Z,10.04
2023-11-12T09:18:51.030Z,10.11
2023-11-12T09:21:23.839Z,10.16
2023-11-12T09:23:54.742Z,10.22
2023-11-12T09:26:25.770Z,10.31
2023-11-12T09:28:56.642Z,10.40
2023-11-12T09:31:27.656Z,10.51
2023-11-12T09:33:59.057Z,10.60
2023-11-12T09:36:30.169Z,10.68
2023-11-12T09:39:01.315Z,10.79
2023-11-12T09:41:32.294Z,10.96
2023-11-12T09:44:05.258Z,11.18
2023-11-12T09:46:36.784Z,11.41
2023-11-12T09:49:07.839Z,11.64
2023-11-12T09:51:38.785Z,11.90
2023-11-12T09:54:09.721Z,12.16
2023-11-12T09:56:40.672Z,12.45
2023-11-12T09:59:11.585Z,12.79
2023-11-12T10:01:42.632Z,13.17
2023-11-12T10:04:14.473Z,13.35
2023-11-12T10:06:48.132Z,13.31
2023-11-12T10:09:19.502Z,13.28
2023-11-12T10:11:50.408Z,13.28
2023-11-12T10:14:24.236Z,13.23
2023-11-12T10:16:55.447Z,13.13
2023-11-12T10:25:56.731Z,13.07
2023-11-12T10:28:27.319Z,12.94
2023-11-12T10:30:58.396Z,12.80
2023-11-12T10:33:29.410Z,12.61
2023-11-12T10:36:00.756Z,12.49
2023-11-12T10:44:48.775Z,12.42
2023-11-12T10:47:20.981Z,12.39
2023-11-12T10:49:51.897Z,12.41
2023-11-12T10:52:22.696Z,12.41
2023-11-12T10:54:53.783Z,12.45
2023-11-12T10:57:25.495Z,12.48
2023-11-12T10:59:56.497Z,12.52
2023-11-12T11:02:31.321Z,12.59
2023-11-12T11:05:02.591Z,12.61
2023-11-12T11:07:33.992Z,12.64
2023-11-12T11:10:05.270Z,12.75
2023-11-12T11:12:36.031Z,12.77
2023-11-12T11:15:24.254Z,12.77
2023-11-12T11:17:55.090Z,12.84
2023-11-12T11:20:27.334Z,13.00
2023-11-12T11:22:58.286Z,13.24
2023-11-12T11:25:31.211Z,13.42
2023-11-12T11:28:19.382Z,13.56
2023-11-12T11:31:03.613Z,13.76
2023-11-12T11:33:37.051Z,14.00
2023-11-12T11:36:11.317Z,14.13
2023-11-12T11:38:42.410Z,14.30
2023-11-12T11:41:13.268Z,14.64
2023-11-12T11:43:44.777Z,14.94
2023-11-12T11:46:16.936Z,14.97
2023-11-12T11:49:04.421Z,15.01
2023-11-12T11:51:48.058Z,15.06
2023-11-12T11:54:18.819Z,15.25
2023-11-12T11:56:49.600Z,15.36
2023-11-12T11:59:20.327Z,15.45
2023-11-12T12:01:53.581Z,15.43
2023-11-12T12:04:24.658Z,15.48
2023-11-12T12:06:57.225Z,15.53
2023-11-12T12:09:28.085Z,15.53
2023-11-12T12:11:58.982Z,15.56
2023-11-12T12:14:29.874Z,15.54
2023-11-12T12:17:09.163Z,15.64
2023-11-12T12:19:39.982Z,15.72
2023-11-12T12:22:10.875Z,15.61
2023-11-12T12:24:41.594Z,15.50
2023-11-12T12:27:14.219Z,15.45
2023-11-12T12:29:47.581Z,15.47
2023-11-12T12:32:19.578Z,15.50
2023-11-12T12:34:58.158Z,15.43
2023-11-12T12:37:32.546Z,15.24
2023-11-12T12:40:05.507Z,15.15
2023-11-12T12:42:36.534Z,15.03
2023-11-12T12:45:13.861Z,14.91
2023-11-12T12:47:45.768Z,14.77
2023-11-12T12:50:18.094Z,14.74
2023-11-12T12:52:49.084Z,14.63
2023-11-12T12:55:22.212Z,14.48
2023-11-12T12:57:53.269Z,14.40
2023-11-12T13:00:24.034Z,14.38
2023-11-12T13:02:55.086Z,14.39
2023-11-12T13:05:26.984Z,14.42
2023-11-12T13:07:58.099Z,14.41
2023-11-12T13:10:29.734Z,14.42
2023-11-12T13:13:00.799Z,14.41
2023-11-12T13:15:31.748Z,14.40
2023-11-12T13:18:02.897Z,14.34
2023-11-12T13:20:33.792Z,14.34
2023-11-12T13:23:04.640Z,14.30
2023-11-12T13:25:35.384Z,14.30
2023-11-12T13:28:10.290Z,14.33
2023-11-12T13:30:41.131Z,14.28
2023-11-12T13:33:12.167Z,14.21
2023-11-12T13:35:43.012Z,14.16
2023-11-12T13:38:13.987Z,14.11
2023-11-12T13:40:45.453Z,14.07
2023-11-12T13:43:16.955Z,14.08
2023-11-12T13:45:49.950Z,14.05
2023-11-12T13:48:21.115Z,13.99
2023-11-12T13:50:54.432Z,13.88
2023-11-12T13:53:25.528Z,13.78
2023-11-12T13:55:59.573Z,13.71
2023-11-12T13:58:34.947Z,13.67
2023-11-12T14:01:06.957Z,13.61
2023-11-12T14:03:38.024Z,13.56
2023-11-12T14:06:09.520Z,13.46
2023-11-12T14:08:42.559Z,13.42
2023-11-12T14:11:14.132Z,13.39
2023-11-12T14:13:47.563Z,13.39
2023-11-12T14:16:18.947Z,13.41
2023-11-12T14:18:49.760Z,13.35
2023-11-12T14:21:22.930Z,13.29
2023-11-12T14:23:53.846Z,13.23
2023-11-12T14:26:24.606Z,13.24
2023-11-12T14:28:55.472Z,13.22
2023-11-12T14:31:26.252Z,13.19
2023-11-12T14:33:57.260Z,13.20
2023-11-12T14:36:28.120Z,13.19
2023-11-12T14:38:59.275Z,13.14
2023-11-12T14:41:30.453Z,13.03
2023-11-12T14:44:02.027Z,12.92
2023-11-12T14:46:36.459Z,12.84
2023-11-12T14:49:07.861Z,12.78
2023-11-12T14:51:42.460Z,12.71
2023-11-12T14:54:15.214Z,12.67
2023-11-12T14:56:45.957Z,12.63
2023-11-12T14:59:17.329Z,12.58
2023-11-12T15:01:48.346Z,12.54
2023-11-12T15:04:19.386Z,12.50
2023-11-12T15:06:52.916Z,12.47
2023-11-12T15:09:25.940Z,12.40
2023-11-12T15:11:56.760Z,12.35
2023-11-12T15:14:27.645Z,12.30
2023-11-12T15:16:59.005Z,12.25
2023-11-12T15:19:29.954Z,12.19
2023-11-12T15:22:00.849Z,12.12
2023-11-12T15:24:31.843Z,12.06
2023-11-12T15:27:02.903Z,12.01
2023-11-12T15:29:33.893Z,11.97
2023-11-12T15:32:06.830Z,11.97
2023-11-12T15:34:38.911Z,11.95
2023-11-12T15:37:11.725Z,11.88
2023-11-12T15:39:44.152Z,11.81
2023-11-12T15:42:15.766Z,11.75
2023-11-12T15:44:50.239Z,11.69
2023-11-12T15:47:21.769Z,11.64
2023-11-12T15:49:52.792Z,11.62
2023-11-12T15:52:25.680Z,11.65
2023-11-12T15:54:57.538Z,11.69
2023-11-12T15:57:28.522Z,11.66
2023-11-12T15:59:59.456Z,11.63
2023-11-12T16:02:30.183Z,11.58
2023-11-12T16:05:01.168Z,11.52
2023-11-12T16:07:32.140Z,11.45
2023-11-12T16:10:06.065Z,11.34
2023-11-12T16:12:39.310Z,11.29
2023-11-12T16:15:14.130Z,11.27
2023-11-12T16:17:46.772Z,11.23
2023-11-12T16:20:17.631Z,11.24
2023-11-12T16:22:48.634Z,11.21
2023-11-12T16:25:19.390Z,11.15
2023-11-12T16:27:50.258Z,11.12
2023-11-12T16:30:21.691Z,11.12
2023-11-12T16:32:52.632Z,11.08
2023-11-12T16:35:23.619Z,11.00
2023-11-12T16:37:56.485Z,10.97
2023-11-12T16:40:27.388Z,10.97
2023-11-12T16:43:00.829Z,10.92
2023-11-12T16:45:32.306Z,10.88
2023-11-12T16:48:03.818Z,10.77
2023-11-12T16:50:34.694Z,10.63
2023-11-12T16:53:05.682Z,10.49
2023-11-12T16:55:37.077Z,10.43
2023-11-12T16:58:08.098Z,10.31
2023-11-12T17:00:39.028Z,10.24
2023-11-12T17:03:10.006Z,10.23
2023-11-12T17:05:40.992Z,10.25
2023-11-12T17:08:11.967Z,10.25
2023-11-12T17:10:43.319Z,10.20
2023-11-12T17:13:14.192Z,10.18
2023-11-12T17:15:45.367Z,10.19
2023-11-12T17:18:16.337Z,10.17
2023-11-12T17:20:49.080Z,10.16
2023-11-12T17:23:20.005Z,10.14
2023-11-12T17:25:50.994Z,10.17
2023-11-12T17:28:21.959Z,10.11
2023-11-12T17:30:52.978Z,10.06
2023-11-12T17:33:23.960Z,10.03
2023-11-12T17:35:54.891Z,10.03
2023-11-12T17:38:28.925Z,9.97
2023-11-12T17:40:59.730Z,9.86
2023-11-12T17:43:30.541Z,9.76
2023-11-12T17:46:04.359Z,9.71
2023-11-12T17:48:36.320Z,9.72
2023-11-12T17:51:10.007Z,9.65
2023-11-12T17:53:41.043Z,9.58
2023-11-12T17:56:11.985Z,9.58
2023-11-12T17:58:42.880Z,9.61
2023-11-12T18:01:13.927Z,9.60
2023-11-12T18:03:45.071Z,9.57
2023-11-12T18:06:19.427Z,9.50
2023-11-12T18:08:50.707Z,9.47
2023-11-12T18:11:21.734Z,9.40
2023-11-12T18:13:52.508Z,9.32
2023-11-12T18:16:23.667Z,9.26
2023-11-12T18:18:55.861Z,9.23
2023-11-12T18:21:26.801Z,9.22
2023-11-12T18:23:57.809Z,9.24
2023-11-12T18:26:30.591Z,9.24
2023-11-12T18:29:01.711Z,9.22
2023-11-12T18:31:32.775Z,9.26
2023-11-12T18:34:03.712Z,9.29
2023-11-12T18:36:34.725Z,9.26
2023-11-12T18:39:07.136Z,9.22
2023-11-12T18:41:39.268Z,9.22
2023-11-12T18:44:10.400Z,9.24
2023-11-12T18:46:44.176Z,9.23
2023-11-12T18:49:15.106Z,9.15
2023-11-12T18:51:49.381Z,9.05
2023-11-12T18:54:21.303Z,8.98
2023-11-12T18:56:52.266Z,8.97
2023-11-12T18:59:23.049Z,8.98
2023-11-12T19:01:55.241Z,9.00
2023-11-12T19:04:26.013Z,9.01
2023-11-12T19:06:57.234Z,9.01
2023-11-12T19:09:28.062Z,9.01
2023-11-12T19:11:59.081Z,9.01
2023-11-12T19:14:29.838Z,9.01
2023-11-12T19:17:01.416Z,9.02
2023-11-12T19:19:37.750Z,9.03
2023-11-12T19:22:08.642Z,9.06
2023-11-12T19:24:39.643Z,9.10
2023-11-12T19:27:10.544Z,9.12
2023-11-12T19:29:41.356Z,9.14
2023-11-12T19:32:12.409Z,9.19
2023-11-12T19:34:43.282Z,9.23
2023-11-12T19:37:14.350Z,9.24
2023-11-12T19:39:45.095Z,9.25
2023-11-12T19:42:15.906Z,9.23
2023-11-12T19:44:46.927Z,9.15
2023-11-12T19:47:17.809Z,9.06
2023-11-12T19:49:49.502Z,9.00
2023-11-12T19:52:20.399Z,8.96
2023-11-12T19:54:51.258Z,8.90
2023-11-12T19:57:22.091Z,8.88
2023-11-12T19:59:53.114Z,8.82
2023-11-12T20:02:24.042Z,8.74
2023-11-12T20:04:54.917Z,8.74
2023-11-12T20:07:25.778Z,8.77
2023-11-12T20:09:57.568Z,8.81
2023-11-12T20:12:28.495Z,8.84
2023-11-12T20:15:02.626Z,8.85
2023-11-12T20:17:33.587Z,8.86
2023-11-12T20:20:04.427Z,8.86
2023-11-12T20:22:35.259Z,8.85
2023-11-12T20:25:08.767Z,8.84
2023-11-12T20:27:39.856Z,8.82
2023-11-12T20:30:12.260Z,8.84
2023-11-12T20:32:43.235Z,8.84
2023-11-12T20:35:15.858Z,8.85
2023-11-12T20:37:48.218Z,8.82
2023-11-12T20:40:19.248Z,8.79
2023-11-12T20:42:50.069Z,8.74
2023-11-12T20:45:21.067Z,8.70
2023-11-12T20:47:53.556Z,8.69
2023-11-12T20:50:25.415Z,8.69
2023-11-12T20:52:56.381Z,8.63
2023-11-12T20:55:27.172Z,8.62
2023-11-12T20:57:58.187Z,8.65
2023-11-12T21:00:29.719Z,8.61
2023-11-12T21:03:02.990Z,8.56
2023-11-12T21:05:34.009Z,8.53
2023-11-12T21:08:04.886Z,8.53
2023-11-12T21:10:35.841Z,8.56
2023-11-12T21:13:07.060Z,8.59
2023-11-12T21:15:37.814Z,8.56
2023-11-12T21:18:12.834Z,8.54
2023-11-12T21:20:43.683Z,8.49
2023-11-12T21:23:15.028Z,8.49
2023-11-12T21:25:45.848Z,8.49
2023-11-12T21:28:16.623Z,8.44
2023-11-12T21:30:47.496Z,8.43
2023-11-12T21:33:18.433Z,8.46
2023-11-12T21:35:54.707Z,8.48
2023-11-12T21:38:25.687Z,8.42
2023-11-12T21:40:57.316Z,8.35
2023-11-12T21:43:28.021Z,8.36
2023-11-12T21:46:00.072Z,8.41
2023-11-12T21:48:31.093Z,8.41
2023-11-12T21:51:01.873Z,8.41
2023-11-12T21:53:33.025Z,8.41
2023-11-12T21:56:05.463Z,8.44
2023-11-12T21:58:37.147Z,8.41
2023-11-12T22:01:11.557Z,8.38
2023-11-12T22:03:42.887Z,8.40
2023-11-12T22:06:13.775Z,8.45
2023-11-12T22:08:44.896Z,8.47
2023-11-12T22:11:15.742Z,8.51
2023-11-12T22:13:46.790Z,8.58
2023-11-12T22:16:17.649Z,8.67
2023-11-12T22:18:48.663Z,8.67
2023-11-12T22:21:19.562Z,8.68
2023-11-12T22:23:50.457Z,8.70
2023-11-12T22:26:21.311Z,8.74
2023-11-12T22:28:54.043Z,8.81
2023-11-12T22:31:25.537Z,8.85
2023-11-12T22:33:56.397Z,8.87
2023-11-12T22:36:27.440Z,8.87
2023-11-12T22:38:58.338Z,8.88
2023-11-12T22:41:29.111Z,8.89
2023-11-12T22:44:00.682Z,8.89
2023-11-12T22:46:32.413Z,8.88
2023-11-12T22:49:03.778Z,8.90
2023-11-12T22:51:35.310Z,8.89
2023-11-12T22:54:06.689Z,8.87
2023-11-12T22:56:38.273Z,8.86
2023-11-12T22:59:10.368Z,8.85
2023-11-12T23:01:41.584Z,8.80
2023-11-12T23:04:12.977Z,8.76
2023-11-12T23:06:43.942Z,8.78
2023-11-12T23:09:16.604Z,8.77
2023-11-12T23:11:47.460Z,8.74
2023-11-12T23:14:18.315Z,8.72
2023-11-12T23:16:49.860Z,8.69
2023-11-12T23:19:20.747Z,8.71
2023-11-12T23:21:52.231Z,8.75
2023-11-12T23:24:23.130Z,8.79
2023-11-12T23:26:53.906Z,8.79
2023-11-12T23:29:25.705Z,8.78
2023-11-12T23:31:56.656Z,8.75
2023-11-12T23:34:27.456Z,8.78
2023-11-12T23:36:58.223Z,8.81
2023-11-12T23:39:29.159Z,8.83
2023-11-12T23:41:59.750Z,8.87
2023-11-12T23:44:30.621Z,8.89
2023-11-12T23:47:01.530Z,8.88
2023-11-12T23:49:33.856Z,8.88
2023-11-12T23:52:04.816Z,8.89
2023-11-12T23:54:35.744Z,8.91
2023-11-12T23:57:06.861Z,8.90
2023-11-12T23:59:37.730Z,8.89
